sensor_id;sensor_type;location;lat;lon;timestamp;P1;durP1;ratioP1;P2;durP2;ratioP2
66342;SDS011;53144;51.524;5.080;2023-07-31T00:01:54;19.77;;;6.60;;
66342;SDS011;53144;51.524;5.080;2023-07-31T00:04:20;24.25;;;6.90;;
66342;SDS011;53144;51.524;5.080;2023-07-31T00:06:45;18.20;;;6.60;;
66342;SDS011;53144;51.524;5.080;2023-07-31T00:09:11;16.98;;;6.63;;
66342;SDS011;53144;51.524;5.080;2023-07-31T00:11:36;20.23;;;8.00;;
66342;SDS011;53144;51.524;5.080;2023-07-31T00:14:02;22.10;;;7.20;;
66342;SDS011;53144;51.524;5.080;2023-07-31T00:16:27;18.23;;;6.20;;
66342;SDS011;53144;51.524;5.080;2023-07-31T00:18:53;19.27;;;6.82;;
66342;SDS011;53144;51.524;5.080;2023-07-31T00:21:18;23.80;;;6.32;;
66342;SDS011;53144;51.524;5.080;2023-07-31T00:23:43;23.30;;;7.32;;
66342;SDS011;53144;51.524;5.080;2023-07-31T00:26:09;18.27;;;6.45;;
66342;SDS011;53144;51.524;5.080;2023-07-31T00:28:34;20.85;;;7.28;;
66342;SDS011;53144;51.524;5.080;2023-07-31T00:31:00;18.33;;;6.43;;
66342;SDS011;53144;51.524;5.080;2023-07-31T00:33:26;19.85;;;6.47;;
66342;SDS011;53144;51.524;5.080;2023-07-31T00:35:52;19.40;;;6.70;;
66342;SDS011;53144;51.524;5.080;2023-07-31T00:38:17;19.73;;;6.13;;
66342;SDS011;53144;51.524;5.080;2023-07-31T00:40:42;20.85;;;6.93;;
66342;SDS011;53144;51.524;5.080;2023-07-31T00:43:08;19.08;;;6.40;;
66342;SDS011;53144;51.524;5.080;2023-07-31T00:45:33;19.67;;;6.15;;
66342;SDS011;53144;51.524;5.080;2023-07-31T00:47:59;18.40;;;6.45;;
66342;SDS011;53144;51.524;5.080;2023-07-31T00:50:24;13.15;;;5.63;;
66342;SDS011;53144;51.524;5.080;2023-07-31T00:52:50;13.73;;;6.07;;
66342;SDS011;53144;51.524;5.080;2023-07-31T00:55:16;17.20;;;6.18;;
66342;SDS011;53144;51.524;5.080;2023-07-31T00:57:42;21.90;;;6.55;;
66342;SDS011;53144;51.524;5.080;2023-07-31T01:00:10;18.90;;;6.10;;
66342;SDS011;53144;51.524;5.080;2023-07-31T01:02:36;14.57;;;5.15;;
66342;SDS011;53144;51.524;5.080;2023-07-31T01:05:02;14.82;;;5.82;;
66342;SDS011;53144;51.524;5.080;2023-07-31T01:10:08;15.40;;;5.53;;
66342;SDS011;53144;51.524;5.080;2023-07-31T01:12:40;14.23;;;5.03;;
66342;SDS011;53144;51.524;5.080;2023-07-31T01:15:07;16.45;;;4.97;;
66342;SDS011;53144;51.524;5.080;2023-07-31T01:17:37;15.93;;;5.20;;
66342;SDS011;53144;51.524;5.080;2023-07-31T01:20:04;16.15;;;5.60;;
66342;SDS011;53144;51.524;5.080;2023-07-31T01:28:55;14.40;;;4.97;;
66342;SDS011;53144;51.524;5.080;2023-07-31T01:31:27;13.30;;;5.18;;
66342;SDS011;53144;51.524;5.080;2023-07-31T01:33:56;16.17;;;5.82;;
66342;SDS011;53144;51.524;5.080;2023-07-31T01:36:23;22.30;;;5.30;;
66342;SDS011;53144;51.524;5.080;2023-07-31T01:38:49;14.70;;;5.30;;
66342;SDS011;53144;51.524;5.080;2023-07-31T01:41:18;17.55;;;5.60;;
66342;SDS011;53144;51.524;5.080;2023-07-31T01:43:44;13.70;;;4.75;;
66342;SDS011;53144;51.524;5.080;2023-07-31T01:46:10;18.05;;;4.88;;
66342;SDS011;53144;51.524;5.080;2023-07-31T01:48:36;20.23;;;6.00;;
66342;SDS011;53144;51.524;5.080;2023-07-31T01:51:02;16.05;;;5.63;;
66342;SDS011;53144;51.524;5.080;2023-07-31T01:53:28;15.45;;;5.10;;
66342;SDS011;53144;51.524;5.080;2023-07-31T01:55:55;14.25;;;5.50;;
66342;SDS011;53144;51.524;5.080;2023-07-31T01:58:20;16.48;;;5.45;;
66342;SDS011;53144;51.524;5.080;2023-07-31T02:00:45;16.23;;;5.25;;
66342;SDS011;53144;51.524;5.080;2023-07-31T02:03:11;15.43;;;5.80;;
66342;SDS011;53144;51.524;5.080;2023-07-31T02:05:37;20.33;;;5.88;;
66342;SDS011;53144;51.524;5.080;2023-07-31T02:08:09;16.33;;;5.53;;
66342;SDS011;53144;51.524;5.080;2023-07-31T02:10:34;11.63;;;5.30;;
66342;SDS011;53144;51.524;5.080;2023-07-31T02:13:00;23.63;;;6.68;;
66342;SDS011;53144;51.524;5.080;2023-07-31T02:15:25;15.25;;;5.68;;
66342;SDS011;53144;51.524;5.080;2023-07-31T02:17:50;12.23;;;4.90;;
66342;SDS011;53144;51.524;5.080;2023-07-31T02:20:16;17.02;;;5.28;;
66342;SDS011;53144;51.524;5.080;2023-07-31T02:22:41;16.88;;;5.10;;
66342;SDS011;53144;51.524;5.080;2023-07-31T02:25:07;17.45;;;5.90;;
66342;SDS011;53144;51.524;5.080;2023-07-31T02:27:32;18.15;;;6.30;;
66342;SDS011;53144;51.524;5.080;2023-07-31T02:29:58;13.88;;;5.10;;
66342;SDS011;53144;51.524;5.080;2023-07-31T02:32:24;16.63;;;5.22;;
66342;SDS011;53144;51.524;5.080;2023-07-31T02:34:49;19.05;;;5.80;;
66342;SDS011;53144;51.524;5.080;2023-07-31T02:37:15;16.23;;;5.32;;
66342;SDS011;53144;51.524;5.080;2023-07-31T02:39:40;16.02;;;5.35;;
66342;SDS011;53144;51.524;5.080;2023-07-31T02:42:06;18.25;;;6.47;;
66342;SDS011;53144;51.524;5.080;2023-07-31T02:44:31;17.25;;;5.30;;
66342;SDS011;53144;51.524;5.080;2023-07-31T02:46:56;17.92;;;5.60;;
66342;SDS011;53144;51.524;5.080;2023-07-31T02:49:22;18.83;;;5.60;;
66342;SDS011;53144;51.524;5.080;2023-07-31T02:51:47;13.65;;;4.63;;
66342;SDS011;53144;51.524;5.080;2023-07-31T02:54:13;16.05;;;5.80;;
66342;SDS011;53144;51.524;5.080;2023-07-31T02:56:38;17.75;;;6.35;;
66342;SDS011;53144;51.524;5.080;2023-07-31T02:59:04;15.00;;;5.30;;
66342;SDS011;53144;51.524;5.080;2023-07-31T03:01:29;23.38;;;6.38;;
66342;SDS011;53144;51.524;5.080;2023-07-31T03:03:54;18.08;;;6.07;;
66342;SDS011;53144;51.524;5.080;2023-07-31T03:06:20;15.38;;;5.00;;
66342;SDS011;53144;51.524;5.080;2023-07-31T03:08:45;14.80;;;5.88;;
66342;SDS011;53144;51.524;5.080;2023-07-31T03:11:11;12.52;;;5.75;;
66342;SDS011;53144;51.524;5.080;2023-07-31T03:13:36;17.38;;;5.93;;
66342;SDS011;53144;51.524;5.080;2023-07-31T03:16:02;17.55;;;5.55;;
66342;SDS011;53144;51.524;5.080;2023-07-31T03:18:27;15.40;;;5.10;;
66342;SDS011;53144;51.524;5.080;2023-07-31T03:20:52;14.75;;;4.93;;
66342;SDS011;53144;51.524;5.080;2023-07-31T03:23:18;14.07;;;5.68;;
66342;SDS011;53144;51.524;5.080;2023-07-31T03:25:59;12.85;;;4.90;;
66342;SDS011;53144;51.524;5.080;2023-07-31T03:28:28;13.73;;;5.38;;
66342;SDS011;53144;51.524;5.080;2023-07-31T03:30:53;15.13;;;5.03;;
66342;SDS011;53144;51.524;5.080;2023-07-31T03:33:19;14.95;;;5.65;;
66342;SDS011;53144;51.524;5.080;2023-07-31T03:35:44;15.52;;;6.00;;
66342;SDS011;53144;51.524;5.080;2023-07-31T03:38:10;14.13;;;5.10;;
66342;SDS011;53144;51.524;5.080;2023-07-31T03:40:35;15.13;;;4.93;;
66342;SDS011;53144;51.524;5.080;2023-07-31T03:43:01;14.15;;;4.53;;
66342;SDS011;53144;51.524;5.080;2023-07-31T03:45:26;16.48;;;5.63;;
66342;SDS011;53144;51.524;5.080;2023-07-31T03:47:52;12.60;;;5.03;;
66342;SDS011;53144;51.524;5.080;2023-07-31T03:50:18;14.43;;;5.10;;
66342;SDS011;53144;51.524;5.080;2023-07-31T03:52:43;13.90;;;4.93;;
66342;SDS011;53144;51.524;5.080;2023-07-31T03:55:09;20.02;;;5.18;;
66342;SDS011;53144;51.524;5.080;2023-07-31T03:57:34;10.77;;;5.13;;
66342;SDS011;53144;51.524;5.080;2023-07-31T04:00:00;16.13;;;4.78;;
66342;SDS011;53144;51.524;5.080;2023-07-31T04:02:25;13.00;;;4.50;;
66342;SDS011;53144;51.524;5.080;2023-07-31T04:04:51;15.43;;;5.15;;
66342;SDS011;53144;51.524;5.080;2023-07-31T04:07:16;13.52;;;5.07;;
66342;SDS011;53144;51.524;5.080;2023-07-31T04:09:41;14.68;;;5.18;;
66342;SDS011;53144;51.524;5.080;2023-07-31T04:12:07;18.17;;;5.57;;
66342;SDS011;53144;51.524;5.080;2023-07-31T04:14:32;12.98;;;4.82;;
66342;SDS011;53144;51.524;5.080;2023-07-31T04:16:58;16.02;;;4.97;;
66342;SDS011;53144;51.524;5.080;2023-07-31T04:19:24;11.82;;;4.43;;
66342;SDS011;53144;51.524;5.080;2023-07-31T04:21:49;9.65;;;4.78;;
66342;SDS011;53144;51.524;5.080;2023-07-31T04:24:14;17.55;;;4.95;;
66342;SDS011;53144;51.524;5.080;2023-07-31T04:26:40;11.07;;;4.15;;
66342;SDS011;53144;51.524;5.080;2023-07-31T04:29:05;17.23;;;4.63;;
66342;SDS011;53144;51.524;5.080;2023-07-31T04:31:31;14.13;;;5.20;;
66342;SDS011;53144;51.524;5.080;2023-07-31T04:33:56;13.93;;;4.88;;
66342;SDS011;53144;51.524;5.080;2023-07-31T04:36:21;19.40;;;5.07;;
66342;SDS011;53144;51.524;5.080;2023-07-31T04:38:47;16.00;;;5.35;;
66342;SDS011;53144;51.524;5.080;2023-07-31T04:41:12;13.38;;;4.97;;
66342;SDS011;53144;51.524;5.080;2023-07-31T04:43:38;19.35;;;4.95;;
66342;SDS011;53144;51.524;5.080;2023-07-31T04:46:04;16.48;;;4.88;;
66342;SDS011;53144;51.524;5.080;2023-07-31T04:48:30;13.50;;;4.00;;
66342;SDS011;53144;51.524;5.080;2023-07-31T04:50:55;15.15;;;5.07;;
66342;SDS011;53144;51.524;5.080;2023-07-31T04:53:21;18.17;;;5.18;;
66342;SDS011;53144;51.524;5.080;2023-07-31T04:55:46;19.10;;;5.18;;
66342;SDS011;53144;51.524;5.080;2023-07-31T04:58:11;16.15;;;5.68;;
66342;SDS011;53144;51.524;5.080;2023-07-31T05:00:37;13.63;;;4.90;;
66342;SDS011;53144;51.524;5.080;2023-07-31T05:03:02;11.35;;;5.07;;
66342;SDS011;53144;51.524;5.080;2023-07-31T05:05:28;16.35;;;5.75;;
66342;SDS011;53144;51.524;5.080;2023-07-31T05:07:53;15.13;;;5.05;;
66342;SDS011;53144;51.524;5.080;2023-07-31T05:10:19;12.95;;;4.90;;
66342;SDS011;53144;51.524;5.080;2023-07-31T05:12:44;12.60;;;4.38;;
66342;SDS011;53144;51.524;5.080;2023-07-31T05:15:09;14.82;;;5.70;;
66342;SDS011;53144;51.524;5.080;2023-07-31T05:17:35;13.93;;;5.22;;
66342;SDS011;53144;51.524;5.080;2023-07-31T05:20:00;15.13;;;5.20;;
66342;SDS011;53144;51.524;5.080;2023-07-31T05:22:26;14.73;;;5.35;;
66342;SDS011;53144;51.524;5.080;2023-07-31T05:24:51;12.40;;;5.25;;
66342;SDS011;53144;51.524;5.080;2023-07-31T05:27:19;13.40;;;5.18;;
66342;SDS011;53144;51.524;5.080;2023-07-31T05:29:44;13.30;;;5.82;;
66342;SDS011;53144;51.524;5.080;2023-07-31T05:32:10;16.70;;;5.00;;
66342;SDS011;53144;51.524;5.080;2023-07-31T05:34:36;10.65;;;5.30;;
66342;SDS011;53144;51.524;5.080;2023-07-31T05:37:01;11.20;;;5.28;;
66342;SDS011;53144;51.524;5.080;2023-07-31T05:39:26;13.73;;;5.38;;
66342;SDS011;53144;51.524;5.080;2023-07-31T05:41:52;11.52;;;4.53;;
66342;SDS011;53144;51.524;5.080;2023-07-31T05:44:17;10.80;;;4.78;;
66342;SDS011;53144;51.524;5.080;2023-07-31T05:46:43;11.00;;;4.80;;
66342;SDS011;53144;51.524;5.080;2023-07-31T05:49:08;10.82;;;4.93;;
66342;SDS011;53144;51.524;5.080;2023-07-31T05:51:33;8.93;;;4.90;;
66342;SDS011;53144;51.524;5.080;2023-07-31T05:53:59;9.60;;;4.38;;
66342;SDS011;53144;51.524;5.080;2023-07-31T05:56:24;8.98;;;4.30;;
66342;SDS011;53144;51.524;5.080;2023-07-31T05:58:51;10.88;;;4.43;;
66342;SDS011;53144;51.524;5.080;2023-07-31T06:01:17;7.50;;;4.00;;
66342;SDS011;53144;51.524;5.080;2023-07-31T06:03:42;7.05;;;3.50;;
66342;SDS011;53144;51.524;5.080;2023-07-31T06:06:08;7.13;;;3.17;;
66342;SDS011;53144;51.524;5.080;2023-07-31T06:08:33;6.32;;;3.60;;
66342;SDS011;53144;51.524;5.080;2023-07-31T06:10:59;6.53;;;3.65;;
66342;SDS011;53144;51.524;5.080;2023-07-31T06:13:24;5.53;;;3.38;;
66342;SDS011;53144;51.524;5.080;2023-07-31T06:15:50;5.50;;;3.15;;
66342;SDS011;53144;51.524;5.080;2023-07-31T06:18:15;4.50;;;2.95;;
66342;SDS011;53144;51.524;5.080;2023-07-31T06:20:41;4.65;;;3.05;;
66342;SDS011;53144;51.524;5.080;2023-07-31T06:23:07;4.18;;;2.80;;
66342;SDS011;53144;51.524;5.080;2023-07-31T06:25:32;5.60;;;3.22;;
66342;SDS011;53144;51.524;5.080;2023-07-31T06:27:58;4.43;;;3.25;;
66342;SDS011;53144;51.524;5.080;2023-07-31T06:30:23;5.03;;;3.40;;
66342;SDS011;53144;51.524;5.080;2023-07-31T06:32:49;4.65;;;3.65;;
66342;SDS011;53144;51.524;5.080;2023-07-31T06:35:14;5.78;;;3.97;;
66342;SDS011;53144;51.524;5.080;2023-07-31T06:37:40;4.82;;;4.18;;
66342;SDS011;53144;51.524;5.080;2023-07-31T06:40:08;10.57;;;4.75;;
66342;SDS011;53144;51.524;5.080;2023-07-31T06:42:34;6.78;;;4.57;;
66342;SDS011;53144;51.524;5.080;2023-07-31T06:45:00;6.85;;;4.20;;
66342;SDS011;53144;51.524;5.080;2023-07-31T06:47:26;5.97;;;4.72;;
66342;SDS011;53144;51.524;5.080;2023-07-31T06:49:51;8.05;;;4.63;;
66342;SDS011;53144;51.524;5.080;2023-07-31T06:52:17;5.07;;;4.07;;
66342;SDS011;53144;51.524;5.080;2023-07-31T06:54:42;6.03;;;4.60;;
66342;SDS011;53144;51.524;5.080;2023-07-31T06:57:08;5.45;;;4.10;;
66342;SDS011;53144;51.524;5.080;2023-07-31T06:59:33;6.55;;;3.95;;
66342;SDS011;53144;51.524;5.080;2023-07-31T07:01:58;8.55;;;4.18;;
66342;SDS011;53144;51.524;5.080;2023-07-31T07:04:24;8.07;;;4.20;;
66342;SDS011;53144;51.524;5.080;2023-07-31T07:06:49;5.00;;;4.15;;
66342;SDS011;53144;51.524;5.080;2023-07-31T07:09:17;8.13;;;4.22;;
66342;SDS011;53144;51.524;5.080;2023-07-31T07:11:43;9.63;;;4.30;;
66342;SDS011;53144;51.524;5.080;2023-07-31T07:14:08;8.80;;;4.88;;
66342;SDS011;53144;51.524;5.080;2023-07-31T07:16:35;7.75;;;4.70;;
66342;SDS011;53144;51.524;5.080;2023-07-31T07:19:00;9.48;;;4.63;;
66342;SDS011;53144;51.524;5.080;2023-07-31T07:21:26;7.82;;;4.95;;
66342;SDS011;53144;51.524;5.080;2023-07-31T07:23:51;8.95;;;4.88;;
66342;SDS011;53144;51.524;5.080;2023-07-31T07:26:16;7.07;;;4.90;;
66342;SDS011;53144;51.524;5.080;2023-07-31T07:28:42;6.80;;;5.10;;
66342;SDS011;53144;51.524;5.080;2023-07-31T07:31:08;7.95;;;4.93;;
66342;SDS011;53144;51.524;5.080;2023-07-31T07:33:33;8.48;;;5.03;;
66342;SDS011;53144;51.524;5.080;2023-07-31T07:36:02;9.05;;;5.53;;
66342;SDS011;53144;51.524;5.080;2023-07-31T07:38:28;7.72;;;5.25;;
66342;SDS011;53144;51.524;5.080;2023-07-31T07:40:53;8.98;;;5.43;;
66342;SDS011;53144;51.524;5.080;2023-07-31T07:43:19;9.48;;;5.57;;
66342;SDS011;53144;51.524;5.080;2023-07-31T07:45:44;8.80;;;4.78;;
66342;SDS011;53144;51.524;5.080;2023-07-31T07:48:10;9.45;;;5.68;;
66342;SDS011;53144;51.524;5.080;2023-07-31T07:50:38;9.55;;;5.47;;
66342;SDS011;53144;51.524;5.080;2023-07-31T07:53:03;8.70;;;5.20;;
66342;SDS011;53144;51.524;5.080;2023-07-31T07:55:29;8.20;;;5.43;;
66342;SDS011;53144;51.524;5.080;2023-07-31T07:57:54;10.40;;;5.63;;
66342;SDS011;53144;51.524;5.080;2023-07-31T08:00:19;9.23;;;5.07;;
66342;SDS011;53144;51.524;5.080;2023-07-31T08:02:45;7.15;;;5.03;;
66342;SDS011;53144;51.524;5.080;2023-07-31T08:05:11;9.75;;;5.53;;
66342;SDS011;53144;51.524;5.080;2023-07-31T08:07:36;9.82;;;5.78;;
66342;SDS011;53144;51.524;5.080;2023-07-31T08:10:01;10.68;;;5.68;;
66342;SDS011;53144;51.524;5.080;2023-07-31T08:12:27;11.50;;;5.80;;
66342;SDS011;53144;51.524;5.080;2023-07-31T08:14:52;8.13;;;5.13;;
66342;SDS011;53144;51.524;5.080;2023-07-31T08:17:18;11.80;;;5.57;;
66342;SDS011;53144;51.524;5.080;2023-07-31T08:19:43;9.52;;;5.18;;
66342;SDS011;53144;51.524;5.080;2023-07-31T08:22:09;10.40;;;6.25;;
66342;SDS011;53144;51.524;5.080;2023-07-31T08:24:35;11.45;;;5.30;;
66342;SDS011;53144;51.524;5.080;2023-07-31T08:27:00;7.35;;;4.90;;
66342;SDS011;53144;51.524;5.080;2023-07-31T08:29:26;9.40;;;5.40;;
66342;SDS011;53144;51.524;5.080;2023-07-31T08:31:52;16.58;;;5.95;;
66342;SDS011;53144;51.524;5.080;2023-07-31T08:34:17;10.60;;;5.53;;
66342;SDS011;53144;51.524;5.080;2023-07-31T08:36:42;15.90;;;5.68;;
66342;SDS011;53144;51.524;5.080;2023-07-31T08:39:09;8.50;;;5.15;;
66342;SDS011;53144;51.524;5.080;2023-07-31T08:41:38;11.95;;;5.82;;
66342;SDS011;53144;51.524;5.080;2023-07-31T08:44:10;11.63;;;5.53;;
66342;SDS011;53144;51.524;5.080;2023-07-31T08:46:35;9.75;;;6.35;;
66342;SDS011;53144;51.524;5.080;2023-07-31T08:49:04;10.88;;;6.18;;
66342;SDS011;53144;51.524;5.080;2023-07-31T08:51:34;14.00;;;5.93;;
66342;SDS011;53144;51.524;5.080;2023-07-31T08:54:00;11.25;;;5.80;;
66342;SDS011;53144;51.524;5.080;2023-07-31T08:56:32;8.60;;;5.90;;
66342;SDS011;53144;51.524;5.080;2023-07-31T08:58:59;13.02;;;5.40;;
66342;SDS011;53144;51.524;5.080;2023-07-31T09:01:29;8.55;;;5.60;;
66342;SDS011;53144;51.524;5.080;2023-07-31T09:03:56;8.77;;;4.88;;
66342;SDS011;53144;51.524;5.080;2023-07-31T09:06:28;11.80;;;5.38;;
66342;SDS011;53144;51.524;5.080;2023-07-31T09:08:55;8.45;;;5.00;;
66342;SDS011;53144;51.524;5.080;2023-07-31T09:11:21;8.43;;;5.28;;
66342;SDS011;53144;51.524;5.080;2023-07-31T09:13:47;10.00;;;5.15;;
66342;SDS011;53144;51.524;5.080;2023-07-31T09:16:13;9.27;;;5.13;;
66342;SDS011;53144;51.524;5.080;2023-07-31T09:18:55;9.55;;;5.03;;
66342;SDS011;53144;51.524;5.080;2023-07-31T09:21:22;9.13;;;4.43;;
66342;SDS011;53144;51.524;5.080;2023-07-31T09:23:49;12.82;;;4.90;;
66342;SDS011;53144;51.524;5.080;2023-07-31T09:26:37;6.85;;;4.50;;
66342;SDS011;53144;51.524;5.080;2023-07-31T09:29:06;9.60;;;4.78;;
66342;SDS011;53144;51.524;5.080;2023-07-31T09:31:43;8.60;;;4.15;;
66342;SDS011;53144;51.524;5.080;2023-07-31T09:34:08;9.23;;;4.18;;
66342;SDS011;53144;51.524;5.080;2023-07-31T09:36:43;6.28;;;3.88;;
66342;SDS011;53144;51.524;5.080;2023-07-31T09:39:10;6.80;;;3.85;;
66342;SDS011;53144;51.524;5.080;2023-07-31T09:41:39;12.23;;;3.92;;
66342;SDS011;53144;51.524;5.080;2023-07-31T09:44:05;5.55;;;3.88;;
66342;SDS011;53144;51.524;5.080;2023-07-31T09:46:31;7.32;;;4.00;;
66342;SDS011;53144;51.524;5.080;2023-07-31T09:49:14;7.47;;;4.22;;
66342;SDS011;53144;51.524;5.080;2023-07-31T09:51:41;6.13;;;3.60;;
66342;SDS011;53144;51.524;5.080;2023-07-31T09:54:11;6.43;;;3.65;;
66342;SDS011;53144;51.524;5.080;2023-07-31T09:56:47;6.00;;;3.80;;
66342;SDS011;53144;51.524;5.080;2023-07-31T09:59:22;9.18;;;4.13;;
66342;SDS011;53144;51.524;5.080;2023-07-31T10:01:48;8.65;;;3.88;;
66342;SDS011;53144;51.524;5.080;2023-07-31T10:04:14;5.22;;;3.50;;
66342;SDS011;53144;51.524;5.080;2023-07-31T10:06:44;6.60;;;3.65;;
66342;SDS011;53144;51.524;5.080;2023-07-31T10:09:13;7.28;;;3.50;;
66342;SDS011;53144;51.524;5.080;2023-07-31T10:11:41;5.15;;;3.42;;
66342;SDS011;53144;51.524;5.080;2023-07-31T10:14:15;7.03;;;3.65;;
66342;SDS011;53144;51.524;5.080;2023-07-31T10:16:42;6.38;;;3.17;;
66342;SDS011;53144;51.524;5.080;2023-07-31T10:19:08;5.70;;;3.30;;
66342;SDS011;53144;51.524;5.080;2023-07-31T10:21:35;5.88;;;3.67;;
66342;SDS011;53144;51.524;5.080;2023-07-31T10:24:02;4.05;;;2.97;;
66342;SDS011;53144;51.524;5.080;2023-07-31T10:26:29;3.97;;;2.65;;
66342;SDS011;53144;51.524;5.080;2023-07-31T10:28:56;7.30;;;3.13;;
66342;SDS011;53144;51.524;5.080;2023-07-31T10:31:23;4.80;;;2.90;;
66342;SDS011;53144;51.524;5.080;2023-07-31T10:33:50;6.55;;;3.10;;
66342;SDS011;53144;51.524;5.080;2023-07-31T10:36:20;5.18;;;3.15;;
66342;SDS011;53144;51.524;5.080;2023-07-31T10:38:45;6.22;;;3.10;;
66342;SDS011;53144;51.524;5.080;2023-07-31T10:41:14;5.05;;;3.42;;
66342;SDS011;53144;51.524;5.080;2023-07-31T10:43:39;7.25;;;2.72;;
66342;SDS011;53144;51.524;5.080;2023-07-31T10:46:08;6.70;;;3.90;;
66342;SDS011;53144;51.524;5.080;2023-07-31T10:48:36;6.65;;;3.40;;
66342;SDS011;53144;51.524;5.080;2023-07-31T10:51:12;9.55;;;4.05;;
66342;SDS011;53144;51.524;5.080;2023-07-31T10:53:40;4.25;;;3.00;;
66342;SDS011;53144;51.524;5.080;2023-07-31T10:56:07;5.35;;;2.92;;
66342;SDS011;53144;51.524;5.080;2023-07-31T10:58:34;4.13;;;2.85;;
66342;SDS011;53144;51.524;5.080;2023-07-31T11:01:01;4.28;;;2.90;;
66342;SDS011;53144;51.524;5.080;2023-07-31T11:03:47;7.95;;;2.97;;
66342;SDS011;53144;51.524;5.080;2023-07-31T11:06:14;8.47;;;3.20;;
66342;SDS011;53144;51.524;5.080;2023-07-31T11:08:41;5.28;;;2.80;;
66342;SDS011;53144;51.524;5.080;2023-07-31T11:11:09;5.60;;;2.88;;
66342;SDS011;53144;51.524;5.080;2023-07-31T11:13:46;6.45;;;3.20;;
66342;SDS011;53144;51.524;5.080;2023-07-31T11:16:15;6.78;;;3.58;;
66342;SDS011;53144;51.524;5.080;2023-07-31T11:18:42;6.45;;;3.15;;
66342;SDS011;53144;51.524;5.080;2023-07-31T11:21:12;6.72;;;3.33;;
66342;SDS011;53144;51.524;5.080;2023-07-31T11:23:40;7.60;;;3.72;;
66342;SDS011;53144;51.524;5.080;2023-07-31T11:26:07;5.63;;;3.30;;
66342;SDS011;53144;51.524;5.080;2023-07-31T11:28:33;5.55;;;3.50;;
66342;SDS011;53144;51.524;5.080;2023-07-31T11:30:59;7.80;;;3.80;;
66342;SDS011;53144;51.524;5.080;2023-07-31T11:33:26;4.75;;;3.30;;
66342;SDS011;53144;51.524;5.080;2023-07-31T11:35:51;4.70;;;3.50;;
66342;SDS011;53144;51.524;5.080;2023-07-31T11:38:27;7.40;;;3.67;;
66342;SDS011;53144;51.524;5.080;2023-07-31T11:40:55;7.55;;;3.50;;
66342;SDS011;53144;51.524;5.080;2023-07-31T11:43:21;6.68;;;3.40;;
66342;SDS011;53144;51.524;5.080;2023-07-31T11:45:48;6.82;;;3.25;;
66342;SDS011;53144;51.524;5.080;2023-07-31T11:48:27;6.93;;;3.35;;
66342;SDS011;53144;51.524;5.080;2023-07-31T11:51:04;6.55;;;3.50;;
66342;SDS011;53144;51.524;5.080;2023-07-31T11:53:33;4.47;;;3.20;;
66342;SDS011;53144;51.524;5.080;2023-07-31T11:56:03;5.78;;;3.83;;
66342;SDS011;53144;51.524;5.080;2023-07-31T11:58:30;6.60;;;3.90;;
66342;SDS011;53144;51.524;5.080;2023-07-31T12:00:56;4.95;;;3.28;;
66342;SDS011;53144;51.524;5.080;2023-07-31T12:03:23;4.40;;;3.28;;
66342;SDS011;53144;51.524;5.080;2023-07-31T12:05:48;5.32;;;3.53;;
66342;SDS011;53144;51.524;5.080;2023-07-31T12:08:14;5.00;;;3.25;;
66342;SDS011;53144;51.524;5.080;2023-07-31T12:10:41;5.88;;;3.47;;
66342;SDS011;53144;51.524;5.080;2023-07-31T12:13:10;8.90;;;3.35;;
66342;SDS011;53144;51.524;5.080;2023-07-31T12:15:41;5.25;;;3.47;;
66342;SDS011;53144;51.524;5.080;2023-07-31T12:18:10;5.47;;;3.60;;
66342;SDS011;53144;51.524;5.080;2023-07-31T12:20:41;7.05;;;3.47;;
66342;SDS011;53144;51.524;5.080;2023-07-31T12:23:12;6.07;;;3.55;;
66342;SDS011;53144;51.524;5.080;2023-07-31T12:25:40;6.65;;;3.97;;
66342;SDS011;53144;51.524;5.080;2023-07-31T12:28:06;10.40;;;4.28;;
66342;SDS011;53144;51.524;5.080;2023-07-31T12:30:39;8.70;;;4.38;;
66342;SDS011;53144;51.524;5.080;2023-07-31T12:33:06;7.07;;;4.60;;
66342;SDS011;53144;51.524;5.080;2023-07-31T12:35:38;7.97;;;4.72;;
66342;SDS011;53144;51.524;5.080;2023-07-31T12:38:05;6.65;;;4.38;;
66342;SDS011;53144;51.524;5.080;2023-07-31T12:40:31;8.10;;;4.78;;
66342;SDS011;53144;51.524;5.080;2023-07-31T12:42:57;7.72;;;4.35;;
66342;SDS011;53144;51.524;5.080;2023-07-31T12:45:25;10.30;;;4.80;;
66342;SDS011;53144;51.524;5.080;2023-07-31T12:47:51;9.15;;;4.40;;
66342;SDS011;53144;51.524;5.080;2023-07-31T12:50:16;8.55;;;4.53;;
66342;SDS011;53144;51.524;5.080;2023-07-31T12:52:41;8.05;;;4.20;;
66342;SDS011;53144;51.524;5.080;2023-07-31T12:55:07;8.13;;;4.68;;
66342;SDS011;53144;51.524;5.080;2023-07-31T12:57:32;10.20;;;4.57;;
66342;SDS011;53144;51.524;5.080;2023-07-31T12:59:58;8.45;;;4.15;;
66342;SDS011;53144;51.524;5.080;2023-07-31T13:02:23;12.50;;;4.78;;
66342;SDS011;53144;51.524;5.080;2023-07-31T13:04:49;9.18;;;4.93;;
66342;SDS011;53144;51.524;5.080;2023-07-31T13:07:15;6.97;;;4.63;;
66342;SDS011;53144;51.524;5.080;2023-07-31T13:09:41;7.10;;;4.30;;
66342;SDS011;53144;51.524;5.080;2023-07-31T13:12:06;6.40;;;4.20;;
66342;SDS011;53144;51.524;5.080;2023-07-31T13:14:32;6.97;;;4.30;;
66342;SDS011;53144;51.524;5.080;2023-07-31T13:16:57;8.25;;;4.20;;
66342;SDS011;53144;51.524;5.080;2023-07-31T13:19:22;6.10;;;3.50;;
66342;SDS011;53144;51.524;5.080;2023-07-31T13:21:48;6.70;;;3.97;;
66342;SDS011;53144;51.524;5.080;2023-07-31T13:24:13;7.60;;;4.18;;
66342;SDS011;53144;51.524;5.080;2023-07-31T13:26:39;7.75;;;4.32;;
66342;SDS011;53144;51.524;5.080;2023-07-31T13:29:04;10.10;;;5.22;;
66342;SDS011;53144;51.524;5.080;2023-07-31T13:31:29;11.63;;;4.90;;
66342;SDS011;53144;51.524;5.080;2023-07-31T13:33:55;9.60;;;5.50;;
66342;SDS011;53144;51.524;5.080;2023-07-31T13:36:20;9.07;;;5.40;;
66342;SDS011;53144;51.524;5.080;2023-07-31T13:38:46;10.25;;;5.38;;
66342;SDS011;53144;51.524;5.080;2023-07-31T13:41:11;11.25;;;5.53;;
66342;SDS011;53144;51.524;5.080;2023-07-31T13:43:37;11.57;;;5.95;;
66342;SDS011;53144;51.524;5.080;2023-07-31T13:46:02;12.77;;;5.90;;
66342;SDS011;53144;51.524;5.080;2023-07-31T13:48:32;12.18;;;5.63;;
66342;SDS011;53144;51.524;5.080;2023-07-31T13:50:59;8.55;;;5.90;;
66342;SDS011;53144;51.524;5.080;2023-07-31T13:53:24;10.68;;;5.63;;
66342;SDS011;53144;51.524;5.080;2023-07-31T13:55:50;11.13;;;5.60;;
66342;SDS011;53144;51.524;5.080;2023-07-31T13:58:15;11.15;;;5.78;;
66342;SDS011;53144;51.524;5.080;2023-07-31T14:00:40;9.20;;;5.85;;
66342;SDS011;53144;51.524;5.080;2023-07-31T14:03:06;12.48;;;6.20;;
66342;SDS011;53144;51.524;5.080;2023-07-31T14:05:31;13.30;;;6.00;;
66342;SDS011;53144;51.524;5.080;2023-07-31T14:07:57;15.68;;;5.95;;
66342;SDS011;53144;51.524;5.080;2023-07-31T14:10:22;13.10;;;5.50;;
66342;SDS011;53144;51.524;5.080;2023-07-31T14:12:48;12.98;;;5.43;;
66342;SDS011;53144;51.524;5.080;2023-07-31T14:15:13;12.00;;;5.38;;
66342;SDS011;53144;51.524;5.080;2023-07-31T14:17:39;12.00;;;4.85;;
66342;SDS011;53144;51.524;5.080;2023-07-31T14:20:04;11.88;;;4.82;;
66342;SDS011;53144;51.524;5.080;2023-07-31T14:22:30;7.75;;;4.72;;
66342;SDS011;53144;51.524;5.080;2023-07-31T14:24:59;8.65;;;4.90;;
66342;SDS011;53144;51.524;5.080;2023-07-31T14:27:24;9.45;;;4.28;;
66342;SDS011;53144;51.524;5.080;2023-07-31T14:29:50;7.90;;;4.50;;
66342;SDS011;53144;51.524;5.080;2023-07-31T14:32:15;13.32;;;4.85;;
66342;SDS011;53144;51.524;5.080;2023-07-31T14:34:41;10.05;;;4.50;;
66342;SDS011;53144;51.524;5.080;2023-07-31T14:37:06;7.68;;;4.38;;
66342;SDS011;53144;51.524;5.080;2023-07-31T14:39:32;10.20;;;4.90;;
66342;SDS011;53144;51.524;5.080;2023-07-31T14:41:57;7.40;;;4.03;;
66342;SDS011;53144;51.524;5.080;2023-07-31T14:44:23;5.63;;;3.78;;
66342;SDS011;53144;51.524;5.080;2023-07-31T14:46:48;8.30;;;4.38;;